createdAt,value
2018-12-18T00:00:26.188Z,25.60
2018-12-18T00:01:05.048Z,25.60
2018-12-18T00:01:45.393Z,25.60
2018-12-18T00:02:24.207Z,25.60
2018-12-18T00:03:03.606Z,25.60
2018-12-18T00:03:43.229Z,25.60
2018-12-18T00:04:24.854Z,25.60
2018-12-18T00:05:07.923Z,25.70
2018-12-18T00:05:47.984Z,25.60
2018-12-18T00:06:26.715Z,25.60
2018-12-18T00:07:05.692Z,25.70
2018-12-18T00:07:44.557Z,25.70
2018-12-18T00:08:25.408Z,25.60
2018-12-18T00:09:04.123Z,25.60
2018-12-18T00:09:42.295Z,25.70
2018-12-18T00:10:21.067Z,25.70
2018-12-18T00:11:04.267Z,25.70
2018-12-18T00:11:47.277Z,25.70
2018-12-18T00:12:25.630Z,25.60
2018-12-18T00:13:08.287Z,25.60
2018-12-18T00:13:48.037Z,25.70
2018-12-18T00:14:26.797Z,25.70
2018-12-18T00:15:05.573Z,25.70
2018-12-18T00:15:44.319Z,25.60
2018-12-18T00:16:23.003Z,25.70
2018-12-18T00:17:01.572Z,25.70
2018-12-18T00:17:42.067Z,25.70
2018-12-18T00:18:21.171Z,25.70
2018-12-18T00:18:59.955Z,25.70
2018-12-18T00:19:38.783Z,25.70
2018-12-18T00:20:17.325Z,25.70
2018-12-18T00:20:56.075Z,25.70
2018-12-18T00:21:35.888Z,25.70
2018-12-18T00:22:14.804Z,25.70
2018-12-18T00:22:53.385Z,25.70
2018-12-18T00:23:32.767Z,25.70
2018-12-18T00:24:12.412Z,25.70
2018-12-18T00:24:50.676Z,25.70
2018-12-18T00:25:29.648Z,25.70
2018-12-18T00:26:10.413Z,25.70
2018-12-18T00:26:50.597Z,25.80
2018-12-18T00:27:30.173Z,25.80
2018-12-18T00:28:08.612Z,25.80
2018-12-18T00:28:48.997Z,25.80
2018-12-18T00:29:27.452Z,25.80
2018-12-18T00:30:06.191Z,25.80
2018-12-18T00:30:44.508Z,25.80
2018-12-18T00:31:23.547Z,25.80
2018-12-18T00:32:03.060Z,25.80
2018-12-18T00:32:42.534Z,25.80
2018-12-18T00:33:23.079Z,25.80
2018-12-18T00:34:02.564Z,25.80
2018-12-18T00:34:41.519Z,25.80
2018-12-18T00:35:23.770Z,25.80
2018-12-18T00:36:02.152Z,25.80
2018-12-18T00:36:41.106Z,25.80
2018-12-18T00:37:19.991Z,25.80
2018-12-18T00:38:02.401Z,25.70
2018-12-18T00:38:41.402Z,25.80
2018-12-18T00:39:19.669Z,25.80
2018-12-18T00:39:58.356Z,25.80
2018-12-18T00:40:36.559Z,25.80
2018-12-18T00:41:15.577Z,25.80
2018-12-18T00:41:55.957Z,25.80
2018-12-18T00:42:41.717Z,25.80
2018-12-18T00:43:23.331Z,25.80
2018-12-18T00:44:11.685Z,25.80
2018-12-18T00:44:50.475Z,25.80
2018-12-18T00:45:28.944Z,25.80
2018-12-18T00:46:08.251Z,25.80
2018-12-18T00:46:46.352Z,25.80
2018-12-18T00:47:29.067Z,25.80
2018-12-18T00:48:07.751Z,25.80
2018-12-18T00:48:46.686Z,25.80
2018-12-18T00:49:25.243Z,25.80
2018-12-18T00:50:06.111Z,25.80
2018-12-18T00:50:44.880Z,25.80
2018-12-18T00:51:24.949Z,25.80
2018-12-18T00:52:04.107Z,25.80
2018-12-18T00:52:47.327Z,25.80
2018-12-18T00:53:26.168Z,25.80
2018-12-18T00:54:05.076Z,25.80
2018-12-18T00:54:43.351Z,25.80
2018-12-18T00:55:26.735Z,25.80
2018-12-18T00:56:05.928Z,25.80
2018-12-18T00:56:44.685Z,25.80
2018-12-18T00:57:24.173Z,25.80
2018-12-18T00:58:02.953Z,25.80
2018-12-18T00:58:43.265Z,25.80
2018-12-18T00:59:21.941Z,25.80
2018-12-18T01:00:00.539Z,25.80
2018-12-18T01:00:39.948Z,25.80
2018-12-18T01:01:18.452Z,25.80
2018-12-18T01:02:02.032Z,25.80
2018-12-18T01:02:40.196Z,25.80
2018-12-18T01:03:18.642Z,25.80
2018-12-18T01:03:57.372Z,25.80
2018-12-18T01:04:36.799Z,25.80
2018-12-18T01:05:15.676Z,25.80
2018-12-18T01:05:54.698Z,25.80
2018-12-18T01:06:34.427Z,25.80
2018-12-18T01:07:13.076Z,25.80
2018-12-18T01:07:53.489Z,25.80
2018-12-18T01:08:34.852Z,25.80
2018-12-18T01:09:13.655Z,25.90
2018-12-18T01:09:54.496Z,25.90
2018-12-18T01:10:34.628Z,25.90
2018-12-18T01:11:12.947Z,25.90
2018-12-18T01:11:52.609Z,25.90
2018-12-18T01:12:31.293Z,25.90
2018-12-18T01:13:09.897Z,25.90
2018-12-18T01:13:53.928Z,25.90
2018-12-18T01:14:36.346Z,26.00
2018-12-18T01:15:15.120Z,26.00
2018-12-18T01:15:54.108Z,26.00
2018-12-18T01:16:32.164Z,26.00
2018-12-18T01:17:11.680Z,26.00
2018-12-18T01:18:43.698Z,26.00
2018-12-18T01:19:22.619Z,26.00
2018-12-18T01:20:03.016Z,26.00
2018-12-18T01:20:41.911Z,26.00
2018-12-18T01:21:21.057Z,26.00
2018-12-18T01:22:05.154Z,26.00
2018-12-18T01:22:43.916Z,26.00
2018-12-18T01:23:22.481Z,26.00
2018-12-18T01:24:01.018Z,26.00
2018-12-18T01:24:39.504Z,26.00
2018-12-18T01:25:19.229Z,26.00
2018-12-18T01:26:01.463Z,26.00
2018-12-18T01:26:40.075Z,26.00
2018-12-18T01:27:19.492Z,26.00
2018-12-18T01:27:57.797Z,26.00
2018-12-18T01:28:36.914Z,26.00
2018-12-18T01:29:15.069Z,26.00
2018-12-18T01:29:53.872Z,26.00
2018-12-18T01:30:34.067Z,26.10
2018-12-18T01:31:13.864Z,26.00
2018-12-18T01:31:53.233Z,26.10
2018-12-18T01:32:35.227Z,26.10
2018-12-18T01:33:13.798Z,26.10
2018-12-18T01:33:59.116Z,26.10
2018-12-18T01:34:34.056Z,26.10
2018-12-18T01:35:12.790Z,26.10
2018-12-18T01:35:51.432Z,26.10
2018-12-18T01:36:29.926Z,26.10
2018-12-18T01:37:10.176Z,26.10
2018-12-18T01:37:49.237Z,26.10
2018-12-18T01:38:27.461Z,26.10
2018-12-18T01:39:09.479Z,26.10
2018-12-18T01:39:50.341Z,26.10
2018-12-18T01:40:30.353Z,26.10
2018-12-18T01:41:08.536Z,26.10
2018-12-18T01:41:47.238Z,26.10
2018-12-18T01:42:26.604Z,26.10
2018-12-18T01:43:06.200Z,26.10
2018-12-18T01:43:44.900Z,26.20
2018-12-18T01:44:23.482Z,26.20
2018-12-18T01:45:02.008Z,26.20
2018-12-18T01:45:40.727Z,26.20
2018-12-18T01:46:19.492Z,26.20
2018-12-18T01:46:57.891Z,26.20
2018-12-18T01:47:37.597Z,26.20
2018-12-18T01:48:16.807Z,26.20
2018-12-18T01:48:55.501Z,26.20
2018-12-18T01:49:33.740Z,26.20
2018-12-18T01:50:16.688Z,26.20
2018-12-18T01:50:55.494Z,26.20
2018-12-18T01:51:34.991Z,26.20
2018-12-18T01:52:14.368Z,26.20
2018-12-18T01:52:52.552Z,26.20
2018-12-18T01:53:30.776Z,26.20
2018-12-18T01:54:09.452Z,26.20
2018-12-18T01:54:48.212Z,26.20
2018-12-18T01:55:26.753Z,26.20
2018-12-18T01:56:05.520Z,26.20
2018-12-18T01:56:44.132Z,26.20
2018-12-18T01:57:22.906Z,26.20
2018-12-18T01:58:01.776Z,26.20
2018-12-18T01:58:42.758Z,26.20
2018-12-18T01:59:21.160Z,26.20
2018-12-18T01:59:59.780Z,26.20
2018-12-18T02:00:40.220Z,26.20
2018-12-18T02:01:20.117Z,26.20
2018-12-18T02:01:58.921Z,26.20
2018-12-18T02:02:38.248Z,26.20
2018-12-18T02:03:19.374Z,26.20
2018-12-18T02:03:58.080Z,26.20
2018-12-18T02:04:36.134Z,26.20
2018-12-18T02:05:14.943Z,26.20
2018-12-18T02:05:53.385Z,26.20
2018-12-18T02:07:05.078Z,26.20
2018-12-18T02:07:43.523Z,26.30
2018-12-18T02:08:21.969Z,26.30
2018-12-18T02:09:00.884Z,26.30
2018-12-18T02:09:39.326Z,26.30
2018-12-18T02:10:17.631Z,26.30
2018-12-18T02:10:57.697Z,26.30
2018-12-18T02:11:35.912Z,26.30
2018-12-18T02:12:14.120Z,26.30
2018-12-18T02:12:52.515Z,26.30
2018-12-18T02:13:32.356Z,26.30
2018-12-18T02:14:12.031Z,26.30
2018-12-18T02:14:50.456Z,26.30
2018-12-18T02:15:32.786Z,26.30
2018-12-18T02:16:11.847Z,26.30
2018-12-18T02:16:50.644Z,26.40
2018-12-18T02:17:30.004Z,26.30
2018-12-18T02:18:14.388Z,26.30
2018-12-18T02:18:52.552Z,26.30
2018-12-18T02:19:31.782Z,26.30
2018-12-18T02:20:13.437Z,26.30
2018-12-18T02:20:51.666Z,26.30
2018-12-18T02:21:30.351Z,26.30
2018-12-18T02:22:08.956Z,26.30
2018-12-18T02:22:47.827Z,26.40
2018-12-18T02:23:26.204Z,26.30
2018-12-18T02:24:15.019Z,26.30
2018-12-18T02:24:58.178Z,26.40
2018-12-18T02:25:36.656Z,26.30
2018-12-18T02:26:14.733Z,26.30
2018-12-18T02:26:53.054Z,26.40
2018-12-18T02:27:32.273Z,26.40
2018-12-18T02:28:11.266Z,26.40
2018-12-18T02:28:49.961Z,26.40
2018-12-18T02:29:28.869Z,26.40
2018-12-18T02:30:07.950Z,26.40
2018-12-18T02:30:46.435Z,26.40
2018-12-18T02:31:30.373Z,26.40
2018-12-18T02:32:08.436Z,26.40
2018-12-18T02:32:47.212Z,26.40
2018-12-18T02:33:27.316Z,26.40
2018-12-18T02:34:13.448Z,26.40
2018-12-18T02:34:48.443Z,26.40
2018-12-18T02:35:27.276Z,26.40
2018-12-18T02:36:07.532Z,26.40
2018-12-18T02:36:46.773Z,26.40
2018-12-18T02:37:25.388Z,26.40
2018-12-18T02:38:05.622Z,26.40
2018-12-18T02:38:44.120Z,26.40
2018-12-18T02:39:22.593Z,26.40
2018-12-18T02:40:00.989Z,26.40
2018-12-18T02:40:40.594Z,26.40
2018-12-18T02:41:19.768Z,26.40
2018-12-18T02:41:58.570Z,26.40
2018-12-18T02:42:40.186Z,26.40
2018-12-18T02:43:18.944Z,26.50
2018-12-18T02:43:58.271Z,26.40
2018-12-18T02:44:36.711Z,26.50
2018-12-18T02:45:14.975Z,26.50
2018-12-18T02:45:53.522Z,26.50
2018-12-18T02:46:32.210Z,26.50
2018-12-18T02:47:13.800Z,26.50
2018-12-18T02:47:53.793Z,26.50
2018-12-18T02:48:32.435Z,26.50
2018-12-18T02:49:14.732Z,26.60
2018-12-18T02:49:53.305Z,26.60
2018-12-18T02:50:31.960Z,26.60
2018-12-18T02:51:11.165Z,26.60
2018-12-18T02:51:49.564Z,26.60
2018-12-18T02:52:28.082Z,26.60
2018-12-18T02:53:06.613Z,26.60
2018-12-18T02:53:46.982Z,26.60
2018-12-18T02:54:26.279Z,26.50
2018-12-18T02:55:05.989Z,26.50
2018-12-18T02:55:44.558Z,26.60
2018-12-18T02:56:23.084Z,26.60
2018-12-18T02:57:01.795Z,26.60
2018-12-18T02:57:41.604Z,26.60
2018-12-18T02:58:25.332Z,26.60
2018-12-18T02:59:03.960Z,26.70
2018-12-18T02:59:42.791Z,26.70
2018-12-18T03:00:22.312Z,26.70
2018-12-18T03:01:01.627Z,26.80
2018-12-18T03:01:40.137Z,26.80
2018-12-18T03:02:18.777Z,26.80
2018-12-18T03:02:57.123Z,26.80
2018-12-18T03:03:36.000Z,26.80
2018-12-18T03:04:20.913Z,26.80
2018-12-18T03:04:58.472Z,26.80
2018-12-18T03:05:37.303Z,26.90
2018-12-18T03:06:15.599Z,26.90
2018-12-18T03:06:54.392Z,26.90
2018-12-18T03:07:35.890Z,26.80
2018-12-18T03:08:15.412Z,26.80
2018-12-18T03:08:54.215Z,26.80
2018-12-18T03:09:32.281Z,26.80
2018-12-18T03:10:13.032Z,26.80
2018-12-18T03:10:52.799Z,26.80
2018-12-18T03:11:34.055Z,26.90
2018-12-18T03:12:13.864Z,26.90
2018-12-18T03:12:52.949Z,26.90
2018-12-18T03:13:33.380Z,26.80
2018-12-18T03:14:15.704Z,26.90
2018-12-18T03:14:54.866Z,26.90
2018-12-18T03:15:33.328Z,26.90
2018-12-18T03:16:11.627Z,26.90
2018-12-18T03:16:49.853Z,26.90
2018-12-18T03:17:28.407Z,26.90
2018-12-18T03:18:07.539Z,27.00
2018-12-18T03:18:51.447Z,27.00
2018-12-18T03:19:32.850Z,26.90
2018-12-18T03:20:11.909Z,27.00
2018-12-18T03:20:52.365Z,26.90
2018-12-18T03:21:32.152Z,27.00
2018-12-18T03:22:10.782Z,27.00
2018-12-18T03:22:49.172Z,27.00
2018-12-18T03:23:28.638Z,27.00
2018-12-18T03:24:07.465Z,27.10
2018-12-18T03:24:45.795Z,27.10
2018-12-18T03:25:24.619Z,27.10
2018-12-18T03:26:03.085Z,27.10
2018-12-18T03:26:41.848Z,27.00
2018-12-18T03:27:20.296Z,27.10
2018-12-18T03:27:58.778Z,27.00
2018-12-18T03:28:37.241Z,27.00
2018-12-18T03:29:16.101Z,27.10
2018-12-18T03:29:54.772Z,27.10
2018-12-18T03:30:33.389Z,27.10
2018-12-18T03:31:11.955Z,27.10
2018-12-18T03:31:54.468Z,27.00
2018-12-18T03:32:37.423Z,27.00
2018-12-18T03:33:15.817Z,27.00
2018-12-18T03:33:55.715Z,27.00
2018-12-18T03:34:34.353Z,27.00
2018-12-18T03:35:13.057Z,27.00
2018-12-18T03:35:52.344Z,27.00
2018-12-18T03:36:32.894Z,27.00
2018-12-18T03:37:11.215Z,27.00
2018-12-18T03:37:49.942Z,27.00
2018-12-18T03:38:31.330Z,27.00
2018-12-18T03:39:10.935Z,27.00
2018-12-18T03:39:49.675Z,27.00
2018-12-18T03:40:28.249Z,27.00
2018-12-18T03:41:07.788Z,27.00
2018-12-18T03:41:47.530Z,27.00
2018-12-18T03:42:26.143Z,27.00
2018-12-18T03:43:04.654Z,27.00
2018-12-18T03:43:43.343Z,27.00
2018-12-18T03:44:22.002Z,27.00
2018-12-18T03:45:00.593Z,27.00
2018-12-18T03:45:39.001Z,27.00
2018-12-18T03:46:18.788Z,27.00
2018-12-18T03:46:57.485Z,27.00
2018-12-18T03:47:37.236Z,27.00
2018-12-18T03:48:15.373Z,27.00
2018-12-18T03:48:54.107Z,27.00
2018-12-18T03:49:32.525Z,27.00
2018-12-18T03:50:10.925Z,27.10
2018-12-18T03:50:49.708Z,27.00
2018-12-18T03:51:28.373Z,27.00
2018-12-18T03:52:06.977Z,27.00
2018-12-18T03:52:45.497Z,27.00
2018-12-18T03:53:24.077Z,27.00
2018-12-18T03:54:04.258Z,27.00
2018-12-18T03:54:44.874Z,27.00
2018-12-18T03:55:23.717Z,27.00
2018-12-18T03:56:02.905Z,27.00
2018-12-18T03:56:42.800Z,27.00
2018-12-18T03:57:21.221Z,27.00
2018-12-18T03:57:59.700Z,27.00
2018-12-18T03:58:38.272Z,27.10
2018-12-18T03:59:16.840Z,27.00
2018-12-18T03:59:55.777Z,27.10
2018-12-18T04:00:34.673Z,27.00
2018-12-18T04:01:13.612Z,27.10
2018-12-18T04:01:52.090Z,27.10
2018-12-18T04:02:30.764Z,27.10
2018-12-18T04:03:09.077Z,27.10
2018-12-18T04:03:47.419Z,27.10
2018-12-18T04:04:25.965Z,27.10
2018-12-18T04:05:04.677Z,27.10
2018-12-18T04:05:43.477Z,27.10
2018-12-18T04:06:22.830Z,27.10
2018-12-18T04:07:01.407Z,27.10
2018-12-18T04:07:42.975Z,27.10
2018-12-18T04:08:21.473Z,27.10
2018-12-18T04:08:59.487Z,27.10
2018-12-18T04:09:37.434Z,27.10
2018-12-18T04:10:15.783Z,27.10
2018-12-18T04:10:54.275Z,27.10
2018-12-18T04:11:33.394Z,27.10
2018-12-18T04:12:20.683Z,27.10
2018-12-18T04:12:59.182Z,27.10
2018-12-18T04:13:37.840Z,27.10
2018-12-18T04:14:16.636Z,27.10
2018-12-18T04:14:55.205Z,27.20
2018-12-18T04:15:33.520Z,27.10
2018-12-18T04:16:12.690Z,27.10
2018-12-18T04:16:51.953Z,27.20
2018-12-18T04:17:30.802Z,27.10
2018-12-18T04:18:09.549Z,27.10
2018-12-18T04:18:50.190Z,27.20
2018-12-18T04:19:29.179Z,27.20
2018-12-18T04:20:07.926Z,27.10
2018-12-18T04:20:46.321Z,27.20
2018-12-18T04:21:29.362Z,27.10
2018-12-18T04:22:07.904Z,27.20
2018-12-18T04:22:46.244Z,27.10
2018-12-18T04:23:25.382Z,27.10
2018-12-18T04:24:03.850Z,27.20
2018-12-18T04:24:42.175Z,27.10
2018-12-18T04:25:20.621Z,27.20
2018-12-18T04:25:59.338Z,27.20
2018-12-18T04:26:38.073Z,27.10
2018-12-18T04:27:17.029Z,27.20
2018-12-18T04:27:57.823Z,27.20
2018-12-18T04:28:36.473Z,27.10
2018-12-18T04:29:14.668Z,27.20
2018-12-18T04:29:53.294Z,27.10
2018-12-18T04:30:32.390Z,27.20
2018-12-18T04:31:12.181Z,27.20
2018-12-18T04:31:51.707Z,27.10
2018-12-18T04:32:30.818Z,27.10
2018-12-18T04:33:11.016Z,27.20
2018-12-18T04:33:50.168Z,27.20
2018-12-18T04:34:28.873Z,27.20
2018-12-18T04:35:17.541Z,27.20
2018-12-18T04:35:55.905Z,27.20
2018-12-18T04:36:34.613Z,27.20
2018-12-18T04:37:13.771Z,27.20
2018-12-18T04:37:54.770Z,27.20
2018-12-18T04:38:34.187Z,27.20
2018-12-18T04:39:12.895Z,27.20
2018-12-18T04:39:52.319Z,27.20
2018-12-18T04:40:31.647Z,27.20
2018-12-18T04:41:10.901Z,27.20
2018-12-18T04:41:49.527Z,27.20
2018-12-18T04:42:28.544Z,27.20
2018-12-18T04:43:07.324Z,27.20
2018-12-18T04:43:45.876Z,27.20
2018-12-18T04:44:27.219Z,27.20
2018-12-18T04:45:05.594Z,27.20
2018-12-18T04:45:44.215Z,27.20
2018-12-18T04:46:22.431Z,27.20
2018-12-18T04:47:03.062Z,27.30
2018-12-18T04:47:42.734Z,27.30
2018-12-18T04:48:21.385Z,27.30
2018-12-18T04:49:00.017Z,27.30
2018-12-18T04:49:41.150Z,27.30
2018-12-18T04:50:20.849Z,27.30
2018-12-18T04:50:59.655Z,27.30
2018-12-18T04:51:39.345Z,27.30
2018-12-18T04:52:18.242Z,27.30
2018-12-18T04:52:56.754Z,27.30
2018-12-18T04:53:38.828Z,27.30
2018-12-18T04:54:18.412Z,27.30
2018-12-18T04:54:57.632Z,27.30
2018-12-18T04:55:37.069Z,27.20
2018-12-18T04:56:17.888Z,27.20
2018-12-18T04:56:56.296Z,27.30
2018-12-18T04:57:38.009Z,27.20
2018-12-18T04:58:16.600Z,27.20
2018-12-18T04:58:55.264Z,27.20
2018-12-18T04:59:33.662Z,27.30
2018-12-18T05:00:12.734Z,27.30
2018-12-18T05:00:51.409Z,27.30
2018-12-18T05:01:30.079Z,27.30
2018-12-18T05:02:10.097Z,27.30
2018-12-18T05:02:51.427Z,27.30
2018-12-18T05:03:30.296Z,27.30
2018-12-18T05:04:09.090Z,27.30
2018-12-18T05:04:50.417Z,27.30
2018-12-18T05:05:31.130Z,27.30
2018-12-18T05:06:09.635Z,27.30
2018-12-18T05:06:48.319Z,27.40
2018-12-18T05:07:26.876Z,27.40
2018-12-18T05:08:07.666Z,27.40
2018-12-18T05:08:46.175Z,27.40
2018-12-18T05:09:24.808Z,27.40
2018-12-18T05:10:04.096Z,27.40
2018-12-18T05:10:42.568Z,27.40
2018-12-18T05:11:21.449Z,27.40
2018-12-18T05:12:00.416Z,27.40
2018-12-18T05:12:38.875Z,27.40
2018-12-18T05:13:17.408Z,27.40
2018-12-18T05:13:55.787Z,27.40
2018-12-18T05:14:34.315Z,27.40
2018-12-18T05:15:12.768Z,27.40
2018-12-18T05:15:51.235Z,27.40
2018-12-18T05:16:32.226Z,27.40
2018-12-18T05:17:10.908Z,27.40
2018-12-18T05:17:50.189Z,27.50
2018-12-18T05:18:30.793Z,27.40
2018-12-18T05:19:10.016Z,27.50
2018-12-18T05:19:48.371Z,27.40
2018-12-18T05:20:26.971Z,27.50
2018-12-18T05:21:10.426Z,27.50
2018-12-18T05:21:48.708Z,27.50
2018-12-18T05:22:27.627Z,27.50
2018-12-18T05:23:06.297Z,27.50
2018-12-18T05:23:44.640Z,27.50
2018-12-18T05:24:22.955Z,27.60
2018-12-18T05:25:02.133Z,27.60
2018-12-18T05:25:40.590Z,27.60
2018-12-18T05:26:19.033Z,27.60
2018-12-18T05:26:57.747Z,27.60
2018-12-18T05:27:37.203Z,27.60
2018-12-18T05:28:16.338Z,27.60
2018-12-18T05:28:55.001Z,27.60
2018-12-18T05:29:37.220Z,27.60
2018-12-18T05:30:16.974Z,27.70
2018-12-18T05:30:56.685Z,27.70
2018-12-18T05:31:36.235Z,27.70
2018-12-18T05:32:19.881Z,27.70
2018-12-18T05:32:59.230Z,27.60
2018-12-18T05:33:38.341Z,27.60
2018-12-18T05:34:19.530Z,27.60
2018-12-18T05:34:58.496Z,27.60
2018-12-18T05:35:37.648Z,27.60
2018-12-18T05:36:16.066Z,27.60
2018-12-18T05:36:58.608Z,27.70
2018-12-18T05:37:39.132Z,27.60
2018-12-18T05:38:17.877Z,27.60
2018-12-18T05:38:56.424Z,27.60
2018-12-18T05:39:36.482Z,27.60
2018-12-18T05:40:14.856Z,27.60
2018-12-18T05:40:54.427Z,27.60
2018-12-18T05:41:33.620Z,27.70
2018-12-18T05:42:12.680Z,27.70
2018-12-18T05:42:51.922Z,27.70
2018-12-18T05:43:35.332Z,27.70
2018-12-18T05:44:17.121Z,27.70
2018-12-18T05:44:56.400Z,27.70
2018-12-18T05:45:34.415Z,27.70
2018-12-18T05:46:14.498Z,27.70
2018-12-18T05:46:54.035Z,27.70
2018-12-18T05:47:33.329Z,27.80
2018-12-18T05:48:16.058Z,27.80
2018-12-18T05:48:54.935Z,27.80
2018-12-18T05:49:35.404Z,27.90
2018-12-18T05:50:14.431Z,27.90
2018-12-18T05:50:55.082Z,27.90
2018-12-18T05:51:34.477Z,27.90
2018-12-18T05:52:13.584Z,27.90
2018-12-18T05:52:53.085Z,27.90
2018-12-18T05:53:32.364Z,27.90
2018-12-18T05:54:11.639Z,27.90
2018-12-18T05:54:50.665Z,27.90
2018-12-18T05:55:30.534Z,28.00
2018-12-18T05:56:09.587Z,27.90
2018-12-18T05:56:48.664Z,27.90
2018-12-18T05:57:30.942Z,28.00
2018-12-18T05:58:09.852Z,28.00
2018-12-18T05:58:48.867Z,28.00
2018-12-18T05:59:27.489Z,28.00
2018-12-18T06:00:10.972Z,28.00
2018-12-18T06:00:49.775Z,28.00
2018-12-18T06:01:28.604Z,28.10
2018-12-18T06:02:07.712Z,28.10
2018-12-18T06:02:47.181Z,28.10
2018-12-18T06:03:26.054Z,28.20
2018-12-18T06:04:05.853Z,28.20
2018-12-18T06:04:45.019Z,28.20
2018-12-18T06:05:23.651Z,28.20
2018-12-18T06:06:03.088Z,28.20
2018-12-18T06:06:44.188Z,28.10
2018-12-18T06:07:22.433Z,28.10
2018-12-18T06:08:00.704Z,28.10
2018-12-18T06:08:40.412Z,28.10
2018-12-18T06:09:20.527Z,28.20
2018-12-18T06:09:59.336Z,28.20
2018-12-18T06:10:37.887Z,28.30
2018-12-18T06:11:20.181Z,28.30
2018-12-18T06:11:58.740Z,28.30
2018-12-18T06:12:37.211Z,28.30
2018-12-18T06:13:16.555Z,28.30
2018-12-18T06:13:55.374Z,28.30
2018-12-18T06:14:33.860Z,28.30
2018-12-18T06:15:12.657Z,28.30
2018-12-18T06:15:52.146Z,28.30
2018-12-18T06:16:30.745Z,28.30
2018-12-18T06:17:10.196Z,28.30
2018-12-18T06:17:51.519Z,28.30
2018-12-18T06:18:30.515Z,28.30
2018-12-18T06:19:09.812Z,28.30
2018-12-18T06:19:48.682Z,28.20
2018-12-18T06:20:28.137Z,28.20
2018-12-18T06:21:06.966Z,28.30
2018-12-18T06:21:45.764Z,28.30
2018-12-18T06:22:25.780Z,28.30
2018-12-18T06:23:05.562Z,28.30
2018-12-18T06:23:44.846Z,28.30
2018-12-18T06:24:24.318Z,28.30
2018-12-18T06:25:05.240Z,28.40
2018-12-18T06:25:45.071Z,28.40
2018-12-18T06:26:23.823Z,28.40
2018-12-18T06:27:03.381Z,28.50
2018-12-18T06:27:42.405Z,28.40
2018-12-18T06:28:21.339Z,28.50
2018-12-18T06:29:00.465Z,28.50
2018-12-18T06:29:38.460Z,28.50
2018-12-18T06:30:17.213Z,28.40
2018-12-18T06:30:56.352Z,28.50
2018-12-18T06:31:34.785Z,28.50
2018-12-18T06:32:12.921Z,28.50
2018-12-18T06:32:51.836Z,28.50
2018-12-18T06:33:32.313Z,28.50
2018-12-18T06:34:11.739Z,28.50
2018-12-18T06:34:51.087Z,28.50
2018-12-18T06:35:30.121Z,28.60
2018-12-18T06:36:11.467Z,28.50
2018-12-18T06:36:50.233Z,28.60
2018-12-18T06:37:29.154Z,28.60
2018-12-18T06:38:09.320Z,28.60
2018-12-18T06:38:48.729Z,28.60
2018-12-18T06:39:27.908Z,28.70
2018-12-18T06:40:06.823Z,28.70
2018-12-18T06:40:46.189Z,28.70
2018-12-18T06:41:24.744Z,28.80
2018-12-18T06:42:04.168Z,28.80
2018-12-18T06:42:47.527Z,28.80
2018-12-18T06:43:26.383Z,28.80
2018-12-18T06:44:05.137Z,28.70
2018-12-18T06:44:43.689Z,28.80
2018-12-18T06:45:24.593Z,28.80
2018-12-18T06:46:03.367Z,28.80
2018-12-18T06:46:41.530Z,28.80
2018-12-18T06:47:24.498Z,28.80
2018-12-18T06:48:03.877Z,28.80
2018-12-18T06:48:43.352Z,28.70
2018-12-18T06:49:24.364Z,28.70
2018-12-18T06:50:05.909Z,28.70
2018-12-18T06:50:46.790Z,28.70
2018-12-18T06:51:30.252Z,28.70
2018-12-18T06:52:08.913Z,28.70
2018-12-18T06:52:51.312Z,28.70
2018-12-18T06:53:30.592Z,28.80
2018-12-18T06:54:10.370Z,28.80
2018-12-18T06:54:49.837Z,28.80
2018-12-18T06:55:28.795Z,28.70
2018-12-18T06:56:07.772Z,28.70
2018-12-18T06:56:48.310Z,28.70
2018-12-18T06:57:27.430Z,28.70
2018-12-18T06:58:05.940Z,28.70
2018-12-18T06:58:45.127Z,28.70
2018-12-18T06:59:25.204Z,28.70
2018-12-18T07:00:06.124Z,28.70
2018-12-18T07:00:45.133Z,28.70
2018-12-18T07:01:24.811Z,28.70
2018-12-18T07:02:04.263Z,28.60
2018-12-18T07:02:47.295Z,28.60
2018-12-18T07:03:26.541Z,28.60
2018-12-18T07:04:06.720Z,28.60
2018-12-18T07:04:46.722Z,28.60
2018-12-18T07:05:25.823Z,28.60
2018-12-18T07:06:04.465Z,28.60
2018-12-18T07:06:43.796Z,28.60
2018-12-18T07:07:22.018Z,28.60
2018-12-18T07:08:00.475Z,28.60
2018-12-18T07:08:39.290Z,28.60
2018-12-18T07:09:19.433Z,28.60
2018-12-18T07:09:58.839Z,28.60
2018-12-18T07:10:37.492Z,28.50
2018-12-18T07:11:18.118Z,28.60
2018-12-18T07:11:57.862Z,28.60
2018-12-18T07:12:36.456Z,28.60
2018-12-18T07:13:14.663Z,28.60
2018-12-18T07:13:55.044Z,28.60
2018-12-18T07:14:33.380Z,28.60
2018-12-18T07:15:13.034Z,28.60
2018-12-18T07:15:51.611Z,28.60
2018-12-18T07:16:31.119Z,28.70
2018-12-18T07:17:09.420Z,28.70
2018-12-18T07:17:48.059Z,28.80
2018-12-18T07:18:28.343Z,28.80
2018-12-18T07:19:06.971Z,28.70
2018-12-18T07:19:45.394Z,28.70
2018-12-18T07:20:23.811Z,28.70
2018-12-18T07:21:02.544Z,28.70
2018-12-18T07:21:41.431Z,28.70
2018-12-18T07:22:20.360Z,28.70
2018-12-18T07:22:59.835Z,28.70
2018-12-18T07:23:38.980Z,28.70
2018-12-18T07:24:17.837Z,28.70
2018-12-18T07:24:57.496Z,28.70
2018-12-18T07:25:35.982Z,28.70
2018-12-18T07:26:14.747Z,28.80
2018-12-18T07:26:53.181Z,28.80
2018-12-18T07:27:33.319Z,28.80
2018-12-18T07:28:12.904Z,28.70
2018-12-18T07:28:52.296Z,28.70
2018-12-18T07:29:33.244Z,28.80
2018-12-18T07:30:15.263Z,28.80
2018-12-18T07:30:53.635Z,28.80
2018-12-18T07:31:32.013Z,28.70
2018-12-18T07:32:15.848Z,28.80
2018-12-18T07:32:54.913Z,28.80
2018-12-18T07:33:33.669Z,28.80
2018-12-18T07:34:12.357Z,28.80
2018-12-18T07:34:50.668Z,28.80
2018-12-18T07:35:29.284Z,28.80
2018-12-18T07:36:07.913Z,28.80
2018-12-18T07:36:47.776Z,28.80
2018-12-18T07:37:26.555Z,28.80
2018-12-18T07:38:05.294Z,28.70
2018-12-18T07:38:46.442Z,28.70
2018-12-18T07:39:25.094Z,28.70
2018-12-18T07:40:03.868Z,28.70
2018-12-18T07:40:43.503Z,28.70
2018-12-18T07:41:22.610Z,28.70
2018-12-18T07:42:01.395Z,28.70
2018-12-18T07:42:40.361Z,28.70
2018-12-18T07:43:19.149Z,28.70
2018-12-18T07:43:59.059Z,28.70
2018-12-18T07:44:38.702Z,28.70
2018-12-18T07:45:19.176Z,28.70
2018-12-18T07:45:57.900Z,28.70
2018-12-18T07:46:36.430Z,28.70
2018-12-18T07:47:15.187Z,28.60
2018-12-18T07:47:57.141Z,28.60
2018-12-18T07:48:35.700Z,28.60
2018-12-18T07:49:15.535Z,28.60
2018-12-18T07:49:55.003Z,28.60
2018-12-18T07:50:33.980Z,28.60
2018-12-18T07:51:12.669Z,28.60
2018-12-18T07:51:50.996Z,28.60
2018-12-18T07:52:29.684Z,28.60
2018-12-18T07:53:08.112Z,28.60
2018-12-18T07:53:47.308Z,28.50
2018-12-18T07:54:27.857Z,28.50
2018-12-18T07:55:06.314Z,28.50
2018-12-18T07:55:45.515Z,28.50
2018-12-18T07:56:25.983Z,28.50
2018-12-18T07:57:04.501Z,28.50
2018-12-18T07:57:43.857Z,28.50
2018-12-18T07:58:22.367Z,28.60
2018-12-18T07:59:00.901Z,28.60
2018-12-18T07:59:39.089Z,28.60
2018-12-18T08:00:17.798Z,28.60
2018-12-18T08:00:56.475Z,28.70
2018-12-18T08:01:35.342Z,28.70
2018-12-18T08:02:16.137Z,28.70
2018-12-18T08:03:00.052Z,28.70
2018-12-18T08:03:39.172Z,28.60
2018-12-18T08:04:17.421Z,28.70
2018-12-18T08:04:58.086Z,28.70
2018-12-18T08:05:36.993Z,28.60
2018-12-18T08:06:15.748Z,28.70
2018-12-18T08:06:54.335Z,28.70
2018-12-18T08:07:32.866Z,28.70
2018-12-18T08:08:12.612Z,28.70
2018-12-18T08:08:53.867Z,28.70
2018-12-18T08:09:35.553Z,28.70
2018-12-18T08:10:14.637Z,28.70
2018-12-18T08:10:52.809Z,28.70
2018-12-18T08:11:32.647Z,28.70
2018-12-18T08:12:11.466Z,28.70
2018-12-18T08:12:54.824Z,28.70
2018-12-18T08:13:37.671Z,28.60
2018-12-18T08:14:15.863Z,28.70
2018-12-18T08:14:55.181Z,28.70
2018-12-18T08:15:38.301Z,28.60
2018-12-18T08:16:16.881Z,28.60
2018-12-18T08:16:55.672Z,28.60
2018-12-18T08:17:34.459Z,28.60
2018-12-18T08:18:13.711Z,28.60
2018-12-18T08:18:52.504Z,28.60
2018-12-18T08:19:33.509Z,28.60
2018-12-18T08:20:12.158Z,28.60
2018-12-18T08:20:50.926Z,28.60
2018-12-18T08:21:33.308Z,28.60
2018-12-18T08:22:12.925Z,28.60
2018-12-18T08:22:51.809Z,28.60
2018-12-18T08:23:31.470Z,28.60
2018-12-18T08:24:10.621Z,28.60
2018-12-18T08:24:49.745Z,28.60
2018-12-18T08:25:28.655Z,28.60
2018-12-18T08:26:09.997Z,28.70
2018-12-18T08:26:49.439Z,28.70
2018-12-18T08:27:28.454Z,28.70
2018-12-18T08:28:07.589Z,28.60
2018-12-18T08:28:46.224Z,28.60
2018-12-18T08:29:24.813Z,28.60